createdAt,value
2022-07-28T00:01:23.542Z,11.04
2022-07-28T00:03:50.047Z,11.02
2022-07-28T00:06:17.224Z,11.01
2022-07-28T00:08:43.735Z,10.97
2022-07-28T00:11:10.301Z,10.95
2022-07-28T00:13:36.992Z,10.93
2022-07-28T00:16:03.786Z,10.89
2022-07-28T00:18:30.312Z,10.86
2022-07-28T00:20:58.079Z,10.82
2022-07-28T00:23:24.665Z,10.78
2022-07-28T00:26:05.942Z,10.74
2022-07-28T00:28:32.470Z,10.71
2022-07-28T00:30:58.992Z,10.67
2022-07-28T00:33:33.343Z,10.64
2022-07-28T00:35:59.863Z,10.63
2022-07-28T00:38:26.476Z,10.59
2022-07-28T00:41:11.063Z,10.52
2022-07-28T00:43:47.126Z,10.49
2022-07-28T00:46:14.326Z,10.45
2022-07-28T00:48:42.961Z,10.41
2022-07-28T00:51:09.938Z,10.35
2022-07-28T00:53:39.430Z,10.30
2022-07-28T00:56:06.980Z,10.26
2022-07-28T00:58:34.080Z,10.21
2022-07-28T01:01:00.618Z,10.20
2022-07-28T01:03:27.577Z,10.18
2022-07-28T01:06:11.508Z,10.16
2022-07-28T01:08:46.833Z,10.14
2022-07-28T01:11:19.197Z,10.11
2022-07-28T01:13:59.648Z,10.10
2022-07-28T01:16:27.514Z,10.08
2022-07-28T01:19:12.709Z,10.05
2022-07-28T01:21:42.759Z,10.00
2022-07-28T01:24:27.743Z,9.98
2022-07-28T01:27:14.505Z,9.94
2022-07-28T01:29:53.135Z,9.89
2022-07-28T01:32:21.020Z,9.85
2022-07-28T01:34:59.502Z,9.82
2022-07-28T01:37:28.054Z,9.76
2022-07-28T01:39:56.371Z,9.75
2022-07-28T01:42:24.241Z,9.72
2022-07-28T01:44:53.010Z,9.70
2022-07-28T01:47:20.278Z,9.68
2022-07-28T01:49:49.588Z,9.65
2022-07-28T01:52:17.506Z,9.63
2022-07-28T01:54:45.725Z,9.63
2022-07-28T01:57:15.260Z,9.58
2022-07-28T01:59:42.799Z,9.58
2022-07-28T02:02:10.565Z,9.57
2022-07-28T02:04:38.875Z,9.54
2022-07-28T02:07:05.987Z,9.51
2022-07-28T02:09:32.518Z,9.49
2022-07-28T02:11:59.677Z,9.46
2022-07-28T02:14:27.627Z,9.43
2022-07-28T02:16:58.750Z,9.40
2022-07-28T02:19:26.131Z,9.38
2022-07-28T02:21:54.720Z,9.36
2022-07-28T02:24:23.202Z,9.30
2022-07-28T02:26:53.626Z,9.27
2022-07-28T02:29:49.337Z,9.25
2022-07-28T02:32:27.263Z,9.22
2022-07-28T02:34:57.902Z,9.22
2022-07-28T02:37:26.030Z,9.19
2022-07-28T02:40:00.298Z,9.17
2022-07-28T02:42:30.795Z,9.15
2022-07-28T02:44:58.771Z,9.10
2022-07-28T02:47:27.161Z,9.10
2022-07-28T02:49:55.006Z,9.06
2022-07-28T02:52:25.357Z,9.06
2022-07-28T02:54:52.420Z,9.04
2022-07-28T02:57:19.442Z,8.98
2022-07-28T02:59:46.175Z,8.96
2022-07-28T03:02:13.323Z,8.96
2022-07-28T03:04:59.348Z,8.95
2022-07-28T03:07:27.317Z,8.88
2022-07-28T03:09:53.932Z,8.89
2022-07-28T03:12:20.532Z,8.90
2022-07-28T03:14:47.099Z,8.90
2022-07-28T03:17:13.892Z,8.87
2022-07-28T03:19:40.570Z,8.82
2022-07-28T03:22:10.475Z,8.82
2022-07-28T03:24:38.587Z,8.81
2022-07-28T03:27:17.735Z,8.79
2022-07-28T03:29:46.705Z,8.74
2022-07-28T03:32:13.544Z,8.73
2022-07-28T03:34:40.099Z,8.73
2022-07-28T03:37:12.016Z,8.74
2022-07-28T03:39:45.314Z,8.69
2022-07-28T03:42:12.351Z,8.65
2022-07-28T03:44:39.739Z,8.66
2022-07-28T03:47:07.248Z,8.61
2022-07-28T03:49:33.895Z,8.59
2022-07-28T03:52:00.405Z,8.62
2022-07-28T03:54:26.921Z,8.63
2022-07-28T03:56:53.441Z,8.62
2022-07-28T03:59:20.522Z,8.61
2022-07-28T04:01:47.159Z,8.60
2022-07-28T04:04:13.913Z,8.60
2022-07-28T04:06:40.943Z,8.61
2022-07-28T04:09:07.433Z,8.62
2022-07-28T04:11:33.920Z,8.65
2022-07-28T04:14:00.334Z,8.67
2022-07-28T04:16:26.867Z,8.69
2022-07-28T04:18:53.332Z,8.71
2022-07-28T04:21:19.853Z,8.74
2022-07-28T04:23:46.285Z,8.70
2022-07-28T04:26:12.773Z,8.72
2022-07-28T04:28:39.278Z,8.71
2022-07-28T04:31:05.849Z,8.75
2022-07-28T04:33:32.411Z,8.82
2022-07-28T04:36:00.918Z,8.86
2022-07-28T04:38:27.430Z,8.90
2022-07-28T04:40:53.946Z,8.97
2022-07-28T04:43:22.970Z,8.98
2022-07-28T04:45:53.790Z,9.04
2022-07-28T04:48:21.142Z,9.07
2022-07-28T04:50:47.722Z,9.08
2022-07-28T04:53:14.269Z,9.12
2022-07-28T04:55:40.833Z,9.14
2022-07-28T04:58:09.383Z,9.11
2022-07-28T05:00:36.157Z,9.16
2022-07-28T05:03:03.738Z,9.20
2022-07-28T05:05:30.349Z,9.22
2022-07-28T05:07:57.271Z,9.25
2022-07-28T05:10:23.770Z,9.31
2022-07-28T05:12:50.656Z,9.36
2022-07-28T05:15:17.219Z,9.41
2022-07-28T05:17:43.720Z,9.59
2022-07-28T05:20:10.582Z,9.73
2022-07-28T05:22:44.074Z,9.84
2022-07-28T05:25:14.532Z,9.95
2022-07-28T05:27:41.033Z,10.09
2022-07-28T05:30:08.157Z,10.24
2022-07-28T05:32:34.694Z,10.41
2022-07-28T05:35:01.349Z,10.63
2022-07-28T05:37:29.168Z,10.75
2022-07-28T05:39:55.659Z,11.01
2022-07-28T05:42:22.195Z,11.23
2022-07-28T05:44:48.762Z,11.45
2022-07-28T05:47:15.304Z,11.60
2022-07-28T05:49:41.826Z,11.68
2022-07-28T05:52:08.333Z,11.72
2022-07-28T05:54:34.799Z,11.84
2022-07-28T05:57:01.478Z,12.01
2022-07-28T05:59:28.023Z,12.16
2022-07-28T06:01:54.617Z,12.42
2022-07-28T06:04:28.977Z,12.63
2022-07-28T06:06:56.950Z,12.82
2022-07-28T06:09:23.579Z,13.00
2022-07-28T06:11:50.902Z,13.17
2022-07-28T06:14:18.223Z,13.33
2022-07-28T06:16:45.156Z,13.54
2022-07-28T06:19:11.777Z,13.73
2022-07-28T06:21:38.460Z,13.99
2022-07-28T06:24:05.284Z,14.24
2022-07-28T06:26:31.756Z,14.44
2022-07-28T06:28:58.265Z,14.85
2022-07-28T06:31:24.902Z,15.28
2022-07-28T06:33:51.457Z,15.42
2022-07-28T06:36:17.974Z,15.82
2022-07-28T06:38:44.521Z,15.91
2022-07-28T06:41:11.043Z,16.20
2022-07-28T06:43:39.280Z,16.46
2022-07-28T06:46:06.356Z,16.63
2022-07-28T06:48:33.090Z,16.72
2022-07-28T06:50:59.947Z,16.94
2022-07-28T06:53:28.068Z,16.89
2022-07-28T06:56:00.513Z,16.92
2022-07-28T06:58:26.990Z,16.79
2022-07-28T07:00:53.595Z,17.01
2022-07-28T07:03:20.146Z,17.04
2022-07-28T07:05:46.650Z,17.02
2022-07-28T07:08:18.174Z,17.30
2022-07-28T07:10:44.659Z,17.21
2022-07-28T07:13:13.502Z,17.28
2022-07-28T07:15:40.514Z,17.50
2022-07-28T07:18:07.089Z,17.46
2022-07-28T07:20:33.558Z,17.33
2022-07-28T07:23:00.090Z,17.24
2022-07-28T07:25:26.616Z,17.42
2022-07-28T07:27:53.149Z,17.55
2022-07-28T07:30:19.688Z,17.65
2022-07-28T07:32:46.142Z,18.02
2022-07-28T07:35:12.759Z,18.16
2022-07-28T07:37:39.259Z,18.25
2022-07-28T07:40:06.384Z,18.53
2022-07-28T07:42:33.012Z,18.48
2022-07-28T07:44:59.767Z,18.18
2022-07-28T07:47:26.716Z,18.24
2022-07-28T07:49:53.420Z,17.98
2022-07-28T07:52:19.982Z,18.42
2022-07-28T07:54:46.860Z,18.40
2022-07-28T07:57:13.295Z,18.45
2022-07-28T07:59:39.870Z,18.88
2022-07-28T08:02:06.692Z,18.98
2022-07-28T08:04:37.473Z,19.21
2022-07-28T08:07:05.123Z,19.73
2022-07-28T08:09:32.344Z,19.50
2022-07-28T08:11:58.862Z,19.55
2022-07-28T08:14:25.427Z,19.90
2022-07-28T08:16:52.470Z,20.25
2022-07-28T08:19:21.565Z,20.35
2022-07-28T08:21:48.500Z,20.17
2022-07-28T08:24:27.686Z,20.55
2022-07-28T08:27:00.590Z,20.37
2022-07-28T08:29:27.165Z,20.44
2022-07-28T08:31:53.747Z,20.47
2022-07-28T08:34:26.509Z,20.60
2022-07-28T08:37:01.071Z,20.24
2022-07-28T08:39:27.610Z,20.46
2022-07-28T08:41:55.187Z,20.47
2022-07-28T08:44:25.455Z,21.08
2022-07-28T08:46:52.064Z,21.21
2022-07-28T08:49:18.787Z,21.20
2022-07-28T08:51:48.567Z,21.28
2022-07-28T08:54:17.117Z,20.92
2022-07-28T08:56:47.965Z,20.84
2022-07-28T08:59:15.001Z,20.74
2022-07-28T09:01:41.663Z,20.91
2022-07-28T09:04:09.012Z,21.10
2022-07-28T09:06:36.653Z,20.79
2022-07-28T09:09:03.724Z,20.55
2022-07-28T09:11:30.258Z,20.46
2022-07-28T09:13:56.806Z,20.46
2022-07-28T09:16:23.465Z,20.40
2022-07-28T09:18:50.061Z,20.39
2022-07-28T09:21:16.833Z,20.29
2022-07-28T09:23:44.761Z,20.19
2022-07-28T09:26:12.726Z,20.14
2022-07-28T09:28:58.086Z,20.18
2022-07-28T09:31:26.499Z,20.18
2022-07-28T09:33:57.599Z,20.28
2022-07-28T09:36:24.445Z,20.34
2022-07-28T09:38:51.079Z,20.21
2022-07-28T09:41:23.788Z,20.35
2022-07-28T09:43:54.965Z,20.26
2022-07-28T09:46:23.851Z,20.46
2022-07-28T09:48:50.869Z,20.58
2022-07-28T09:51:25.689Z,20.69
2022-07-28T09:53:52.710Z,20.75
2022-07-28T09:56:19.318Z,20.56
2022-07-28T09:58:57.322Z,20.67
2022-07-28T10:01:24.432Z,20.69
2022-07-28T10:04:02.695Z,20.86
2022-07-28T10:06:30.932Z,20.82
2022-07-28T10:08:59.158Z,20.92
2022-07-28T10:11:29.207Z,21.00
2022-07-28T10:14:00.433Z,21.00
2022-07-28T10:16:28.317Z,21.14
2022-07-28T10:18:55.474Z,20.98
2022-07-28T10:21:23.037Z,21.27
2022-07-28T10:24:09.354Z,21.24
2022-07-28T10:26:42.945Z,21.43
2022-07-28T10:29:12.898Z,21.53
2022-07-28T10:31:53.271Z,21.52
2022-07-28T10:34:34.071Z,21.46
2022-07-28T10:37:02.943Z,21.60
2022-07-28T10:39:32.638Z,21.79
2022-07-28T10:41:59.594Z,21.85
2022-07-28T10:44:26.218Z,21.83
2022-07-28T10:46:52.923Z,21.98
2022-07-28T10:49:20.670Z,22.05
2022-07-28T10:52:06.517Z,22.14
2022-07-28T10:54:43.248Z,22.43
2022-07-28T10:57:11.257Z,22.55
2022-07-28T10:59:40.766Z,22.71
2022-07-28T11:02:07.689Z,22.76
2022-07-28T11:04:40.945Z,22.92
2022-07-28T11:07:11.255Z,23.07
2022-07-28T11:09:37.792Z,23.21
2022-07-28T11:12:04.494Z,23.51
2022-07-28T11:14:34.074Z,23.54
2022-07-28T11:17:04.550Z,23.51
2022-07-28T11:20:01.153Z,23.60
2022-07-28T11:22:31.974Z,24.46
2022-07-28T11:25:18.407Z,24.83
2022-07-28T11:27:54.476Z,24.37
2022-07-28T11:30:36.590Z,24.68
2022-07-28T11:33:04.606Z,24.87
2022-07-28T11:35:31.960Z,25.11
2022-07-28T11:38:01.458Z,24.78
2022-07-28T11:40:44.517Z,25.11
2022-07-28T11:43:36.141Z,25.13
2022-07-28T11:46:04.662Z,25.44
2022-07-28T11:48:33.740Z,26.09
2022-07-28T11:51:03.371Z,26.60
2022-07-28T11:53:35.715Z,26.66
2022-07-28T11:56:05.765Z,27.07
2022-07-28T11:58:32.305Z,26.86
2022-07-28T12:01:19.204Z,27.47
2022-07-28T12:03:50.462Z,27.35
2022-07-28T12:06:29.624Z,27.14
2022-07-28T12:09:04.798Z,27.15
2022-07-28T12:11:32.641Z,26.79
2022-07-28T12:13:59.090Z,27.11
2022-07-28T12:16:32.533Z,27.42
2022-07-28T12:19:02.655Z,27.04
2022-07-28T12:21:46.113Z,27.28
2022-07-28T12:24:20.233Z,26.88
2022-07-28T12:26:49.891Z,27.27
2022-07-28T12:29:17.387Z,27.29
2022-07-28T12:31:54.739Z,27.59
2022-07-28T12:34:21.948Z,27.28
2022-07-28T12:36:54.482Z,27.52
2022-07-28T12:39:23.022Z,27.72
2022-07-28T12:41:59.207Z,27.78
2022-07-28T12:44:32.019Z,27.09
2022-07-28T12:46:58.537Z,26.98
2022-07-28T12:49:25.106Z,26.85
2022-07-28T12:51:51.687Z,27.53
2022-07-28T12:54:18.528Z,27.83
2022-07-28T12:56:45.570Z,27.70
2022-07-28T12:59:15.483Z,27.77
2022-07-28T13:01:49.345Z,27.98
2022-07-28T13:04:16.941Z,27.93
2022-07-28T13:06:54.123Z,27.48
2022-07-28T13:09:24.082Z,26.93
2022-07-28T13:11:59.554Z,27.46
2022-07-28T13:14:45.294Z,27.41
2022-07-28T13:17:12.301Z,27.84
2022-07-28T13:19:38.847Z,27.60
2022-07-28T13:22:08.863Z,27.97
2022-07-28T13:24:35.958Z,28.13
2022-07-28T13:27:03.393Z,28.03
2022-07-28T13:29:33.065Z,28.20
2022-07-28T13:31:59.636Z,28.23
2022-07-28T13:34:26.214Z,28.11
2022-07-28T13:36:52.823Z,28.44
2022-07-28T13:39:19.369Z,28.13
2022-07-28T13:41:57.607Z,27.93
2022-07-28T13:44:29.074Z,27.70
2022-07-28T13:46:57.008Z,27.90
2022-07-28T13:49:27.535Z,28.42
2022-07-28T13:51:54.739Z,28.61
2022-07-28T13:54:21.295Z,28.39
2022-07-28T13:56:48.025Z,28.24
2022-07-28T13:59:14.523Z,28.98
2022-07-28T14:01:41.498Z,28.85
2022-07-28T14:04:15.054Z,28.78
2022-07-28T14:06:45.137Z,28.43
2022-07-28T14:09:12.081Z,28.91
2022-07-28T14:11:41.357Z,29.18
2022-07-28T14:14:17.678Z,28.41
2022-07-28T14:16:47.845Z,28.81
2022-07-28T14:19:16.600Z,28.61
2022-07-28T14:21:50.317Z,28.38
2022-07-28T14:24:17.499Z,28.44
2022-07-28T14:26:44.310Z,28.34
2022-07-28T14:29:11.226Z,28.63
2022-07-28T14:31:38.575Z,28.61
2022-07-28T14:34:05.158Z,28.86
2022-07-28T14:36:31.700Z,28.36
2022-07-28T14:38:58.239Z,28.01
2022-07-28T14:41:25.969Z,27.78
2022-07-28T14:43:52.830Z,28.07
2022-07-28T14:46:21.763Z,28.27
2022-07-28T14:48:48.895Z,28.23
2022-07-28T14:51:15.892Z,28.08
2022-07-28T14:53:49.894Z,27.26
2022-07-28T14:56:18.893Z,27.86
2022-07-28T14:58:45.354Z,27.77
2022-07-28T15:01:11.930Z,27.41
2022-07-28T15:03:43.320Z,27.12
2022-07-28T15:06:10.309Z,26.82
2022-07-28T15:08:36.842Z,27.11
2022-07-28T15:11:03.377Z,26.91
2022-07-28T15:13:29.885Z,26.87
2022-07-28T15:15:56.997Z,26.83
2022-07-28T15:18:24.550Z,26.96
2022-07-28T15:20:51.350Z,26.59
2022-07-28T15:23:17.995Z,26.45
2022-07-28T15:25:46.483Z,26.42
2022-07-28T15:28:17.582Z,26.34
2022-07-28T15:30:51.637Z,26.13
2022-07-28T15:33:19.677Z,26.13
2022-07-28T15:35:57.559Z,26.23
2022-07-28T15:38:26.635Z,26.23
2022-07-28T15:40:53.116Z,26.17
2022-07-28T15:43:19.620Z,25.99
2022-07-28T15:45:50.577Z,25.86
2022-07-28T15:48:17.164Z,25.80
2022-07-28T15:50:48.598Z,25.90
2022-07-28T15:53:15.821Z,25.81
2022-07-28T15:55:44.310Z,25.74
2022-07-28T15:58:14.339Z,25.67
2022-07-28T16:00:41.038Z,25.67
2022-07-28T16:03:07.663Z,25.68
2022-07-28T16:05:34.435Z,25.56
2022-07-28T16:08:00.985Z,25.54
2022-07-28T16:10:29.085Z,25.75
2022-07-28T16:12:57.407Z,25.71
2022-07-28T16:15:27.131Z,25.77
2022-07-28T16:17:54.465Z,25.70
2022-07-28T16:20:21.076Z,25.47
2022-07-28T16:22:47.738Z,25.46
2022-07-28T16:25:19.851Z,25.52
2022-07-28T16:27:50.701Z,25.32
2022-07-28T16:30:18.624Z,25.28
2022-07-28T16:32:45.836Z,25.18
2022-07-28T16:35:12.981Z,25.02
2022-07-28T16:37:42.489Z,24.96
2022-07-28T16:40:09.972Z,24.85
2022-07-28T16:42:36.986Z,24.86
2022-07-28T16:45:03.937Z,24.84
2022-07-28T16:47:30.864Z,24.82
2022-07-28T16:49:57.691Z,24.63
2022-07-28T16:52:24.221Z,24.55
2022-07-28T16:54:50.803Z,24.47
2022-07-28T16:57:17.363Z,24.38
2022-07-28T16:59:48.791Z,24.34
2022-07-28T17:02:15.867Z,24.30
2022-07-28T17:04:42.506Z,24.33
2022-07-28T17:07:09.124Z,24.28
2022-07-28T17:09:35.612Z,24.32
2022-07-28T17:12:02.193Z,24.28
2022-07-28T17:14:28.677Z,24.27
2022-07-28T17:16:55.207Z,24.25
2022-07-28T17:19:22.232Z,24.21
2022-07-28T17:21:48.849Z,24.14
2022-07-28T17:24:15.961Z,24.10
2022-07-28T17:27:35.260Z,23.99
2022-07-28T17:29:29.489Z,23.88
2022-07-28T17:31:56.115Z,23.87
2022-07-28T17:34:22.629Z,23.73
2022-07-28T17:36:50.462Z,23.66
2022-07-28T17:39:17.005Z,23.61
2022-07-28T17:41:43.510Z,23.58
2022-07-28T17:44:10.153Z,23.53
2022-07-28T17:46:36.749Z,23.53
2022-07-28T17:49:04.373Z,23.46
2022-07-28T17:51:31.059Z,23.40
2022-07-28T17:53:57.894Z,23.36
2022-07-28T17:56:24.859Z,23.31
2022-07-28T17:58:52.579Z,23.30
2022-07-28T18:01:19.166Z,23.19
2022-07-28T18:03:57.691Z,23.12
2022-07-28T18:06:30.852Z,23.10
2022-07-28T18:08:58.873Z,23.04
2022-07-28T18:11:33.374Z,22.96
2022-07-28T18:14:04.873Z,22.90
2022-07-28T18:16:32.505Z,22.81
2022-07-28T18:18:59.010Z,22.78
2022-07-28T18:21:26.691Z,22.70
2022-07-28T18:23:54.776Z,22.69
2022-07-28T18:26:22.012Z,22.56
2022-07-28T18:28:48.716Z,22.55
2022-07-28T18:31:15.214Z,22.48
2022-07-28T18:33:41.804Z,22.41
2022-07-28T18:36:08.391Z,22.31
2022-07-28T18:38:34.919Z,22.23
2022-07-28T18:41:01.557Z,22.15
2022-07-28T18:43:28.161Z,22.12
2022-07-28T18:45:54.678Z,22.03
2022-07-28T18:48:21.330Z,21.96
2022-07-28T18:50:47.848Z,21.93
2022-07-28T18:53:14.349Z,21.85
2022-07-28T18:55:40.857Z,21.84
2022-07-28T18:58:07.528Z,21.69
2022-07-28T19:00:33.966Z,21.68
2022-07-28T19:03:01.553Z,21.62
2022-07-28T19:05:36.862Z,21.54
2022-07-28T19:08:04.310Z,21.43
2022-07-28T19:10:32.183Z,21.35
2022-07-28T19:12:58.788Z,21.34
2022-07-28T19:15:25.444Z,21.27
2022-07-28T19:18:10.406Z,21.18
2022-07-28T19:20:38.896Z,21.10
2022-07-28T19:23:05.763Z,21.04
2022-07-28T19:25:32.455Z,20.98
2022-07-28T19:27:59.148Z,20.92
2022-07-28T19:30:25.647Z,20.88
2022-07-28T19:32:52.142Z,20.85
2022-07-28T19:35:18.688Z,20.76
2022-07-28T19:37:45.320Z,20.71
2022-07-28T19:40:11.979Z,20.67
2022-07-28T19:42:38.535Z,20.64
2022-07-28T19:45:05.648Z,20.59
2022-07-28T19:47:32.160Z,20.55
2022-07-28T19:50:05.242Z,20.44
2022-07-28T19:52:31.978Z,20.37
2022-07-28T19:54:58.475Z,20.32
2022-07-28T19:57:26.580Z,20.31
2022-07-28T19:59:53.167Z,20.27
2022-07-28T20:02:19.756Z,20.23
2022-07-28T20:04:46.504Z,20.17
2022-07-28T20:07:13.055Z,20.12
2022-07-28T20:09:39.905Z,20.07
2022-07-28T20:12:07.882Z,20.02
2022-07-28T20:14:35.830Z,19.99
2022-07-28T20:17:02.462Z,19.99
2022-07-28T20:19:30.172Z,19.90
2022-07-28T20:21:57.280Z,19.81
2022-07-28T20:24:24.086Z,19.78
2022-07-28T20:26:50.555Z,19.72
2022-07-28T20:29:17.084Z,19.72
2022-07-28T20:31:43.660Z,19.67
2022-07-28T20:34:12.903Z,19.59
2022-07-28T20:36:39.818Z,19.55
2022-07-28T20:39:27.565Z,19.49
2022-07-28T20:41:52.912Z,19.44
2022-07-28T20:44:29.329Z,19.39
2022-07-28T20:46:58.587Z,19.24
2022-07-28T20:49:25.226Z,19.23
2022-07-28T20:51:51.829Z,19.20
2022-07-28T20:54:18.936Z,19.19
2022-07-28T20:56:45.550Z,19.13
2022-07-28T20:59:12.006Z,19.20
2022-07-28T21:01:39.249Z,19.14
2022-07-28T21:04:05.885Z,19.09
2022-07-28T21:06:34.569Z,19.10
2022-07-28T21:09:04.379Z,19.05
2022-07-28T21:11:34.856Z,19.03
2022-07-28T21:14:02.086Z,18.99
2022-07-28T21:16:28.725Z,18.98
2022-07-28T21:18:55.372Z,19.00
2022-07-28T21:21:22.321Z,18.93
2022-07-28T21:23:50.025Z,18.91
2022-07-28T21:26:17.208Z,18.91
2022-07-28T21:29:02.364Z,18.95
2022-07-28T21:31:28.895Z,18.92
2022-07-28T21:33:55.446Z,18.92
2022-07-28T21:36:21.940Z,18.88
2022-07-28T21:38:48.457Z,18.88
2022-07-28T21:41:15.072Z,18.92
2022-07-28T21:43:41.576Z,18.88
2022-07-28T21:46:08.261Z,18.85
2022-07-28T21:48:34.899Z,18.83
2022-07-28T21:51:01.473Z,18.83
2022-07-28T21:53:27.957Z,18.88
2022-07-28T21:55:54.520Z,18.87
2022-07-28T21:58:21.109Z,18.84
2022-07-28T22:00:47.704Z,18.79
2022-07-28T22:03:14.260Z,18.76
2022-07-28T22:05:40.942Z,18.67
2022-07-28T22:08:08.699Z,18.70
2022-07-28T22:10:35.192Z,18.69
2022-07-28T22:13:01.711Z,18.67
2022-07-28T22:15:28.247Z,18.66
2022-07-28T22:17:55.071Z,18.62
2022-07-28T22:20:21.647Z,18.62
2022-07-28T22:22:48.210Z,18.56
2022-07-28T22:25:14.696Z,18.54
2022-07-28T22:27:41.212Z,18.60
2022-07-28T22:30:07.969Z,18.53
2022-07-28T22:32:34.477Z,18.53
2022-07-28T22:35:00.998Z,18.44
2022-07-28T22:37:27.510Z,18.33
2022-07-28T22:39:54.083Z,18.37
2022-07-28T22:42:20.614Z,18.32
2022-07-28T22:44:47.046Z,18.30
2022-07-28T22:47:13.581Z,18.27
2022-07-28T22:49:40.149Z,18.24
2022-07-28T22:52:06.774Z,18.19
2022-07-28T22:54:36.514Z,18.13
2022-07-28T22:57:02.991Z,18.11
2022-07-28T22:59:32.390Z,18.02
2022-07-28T23:02:05.334Z,18.03
2022-07-28T23:04:31.815Z,17.99
2022-07-28T23:06:58.354Z,17.90
2022-07-28T23:09:25.106Z,17.90
2022-07-28T23:11:55.485Z,17.88
2022-07-28T23:14:22.703Z,17.92
2022-07-28T23:16:49.295Z,17.83
2022-07-28T23:19:16.355Z,17.78
2022-07-28T23:21:42.840Z,17.77
2022-07-28T23:24:09.337Z,17.78
2022-07-28T23:26:35.791Z,17.74
2022-07-28T23:29:02.344Z,17.72
2022-07-28T23:31:29.051Z,17.68
2022-07-28T23:33:57.690Z,17.62
2022-07-28T23:36:26.497Z,17.61
2022-07-28T23:38:54.727Z,17.59
2022-07-28T23:41:21.331Z,17.51
2022-07-28T23:43:47.874Z,17.47
2022-07-28T23:46:14.398Z,17.41
2022-07-28T23:48:42.585Z,17.32
2022-07-28T23:51:09.688Z,17.28
2022-07-28T23:53:37.448Z,17.21
2022-07-28T23:56:04.088Z,17.16
2022-07-28T23:58:30.637Z,17.13
